Time;durP1;ratioP1;P1;durP2;ratioP2;P2;SDS_P1;SDS_P2;PMS_P1;PMS_P2;Temp;Humidity;BMP_temperature;BMP_pressure;BME280_temperature;BME280_humidity;BME280_pressure;Samples;Min_cycle;Max_cycle;Signal;HPM_P1;HPM_P2
2021/10/25 00:02:24;;;;;;;4.42;2.80;;;;;;;6.90;50.68;102097.78;1786251;78;21513;-72
2021/10/25 00:04:52;;;;;;;6.30;3.20;;;;;;;6.86;50.83;102092.55;1796734;78;21105;-72
2021/10/25 00:07:20;;;;;;;6.03;2.75;;;;;;;6.81;50.98;102097.61;1797981;79;21057;-72
2021/10/25 00:09:48;;;;;;;5.87;2.80;;;;;;;6.76;51.11;102092.89;1795822;78;21046;-71
2021/10/25 00:12:15;;;;;;;5.20;2.75;;;;;;;6.70;51.31;102096.31;1796936;79;21145;-72
2021/10/25 00:14:43;;;;;;;7.03;3.37;;;;;;;6.65;51.51;102093.95;1793033;78;21027;-70
2021/10/25 00:17:10;;;;;;;6.47;3.02;;;;;;;6.60;51.71;102089.20;1786127;79;21580;-72
2021/10/25 00:19:37;;;;;;;5.53;3.05;;;;;;;6.55;51.95;102096.94;1784385;78;21140;-72
2021/10/25 00:22:05;;;;;;;5.42;3.10;;;;;;;6.50;52.11;102095.34;1785213;78;21038;-71
2021/10/25 00:24:32;;;;;;;5.55;3.35;;;;;;;6.46;52.27;102101.55;1805995;78;21628;-72
2021/10/25 00:26:59;;;;;;;5.80;3.17;;;;;;;6.43;52.42;102101.11;1787443;78;21161;-72
2021/10/25 00:29:26;;;;;;;6.50;2.98;;;;;;;6.38;52.69;102104.83;1766005;78;21039;-72
2021/10/25 00:31:53;;;;;;;5.87;2.62;;;;;;;6.34;52.82;102103.07;1790754;78;21445;-72
2021/10/25 00:34:20;;;;;;;5.17;2.97;;;;;;;6.31;52.97;102100.80;1544594;78;10000344;-72
2021/10/25 00:36:47;;;;;;;4.97;3.10;;;;;;;6.29;53.12;102101.00;1779504;78;21030;-72
2021/10/25 00:39:13;;;;;;;7.13;3.03;;;;;;;6.27;53.25;102109.64;1794054;78;21588;-71
2021/10/25 00:41:42;;;;;;;5.20;2.72;;;;;;;6.25;53.35;102108.19;1803143;78;21143;-71
2021/10/25 00:44:08;;;;;;;5.33;3.00;;;;;;;6.23;53.47;102108.39;1795296;78;21081;-72
2021/10/25 00:46:35;;;;;;;6.45;3.33;;;;;;;6.19;53.59;102105.81;1787863;78;21197;-72
2021/10/25 00:49:03;;;;;;;5.03;2.77;;;;;;;6.18;53.72;102113.43;1809883;78;21510;-71
2021/10/25 00:51:29;;;;;;;6.55;3.30;;;;;;;6.16;53.81;102103.53;1802627;78;21022;-72
2021/10/25 00:53:56;;;;;;;7.33;3.70;;;;;;;6.14;53.95;102113.50;1793901;78;21125;-72
2021/10/25 00:56:23;;;;;;;6.40;3.70;;;;;;;6.13;54.00;102114.52;1822757;78;21652;-71
2021/10/25 00:58:50;;;;;;;5.90;3.40;;;;;;;6.11;54.08;102113.36;1781266;79;21180;-71
2021/10/25 01:01:17;;;;;;;8.43;3.80;;;;;;;6.09;54.16;102112.75;1824119;78;21030;-72
2021/10/25 01:03:45;;;;;;;5.67;3.02;;;;;;;6.07;54.28;102105.48;1787720;79;21051;-71
2021/10/25 01:06:13;;;;;;;8.10;3.45;;;;;;;6.05;54.43;102102.18;1778253;80;21082;-73
2021/10/25 01:08:40;;;;;;;7.08;4.05;;;;;;;6.05;54.47;102106.66;1804157;77;20973;-73
2021/10/25 01:11:07;;;;;;;5.50;3.20;;;;;;;6.02;54.59;102102.59;1773654;79;21139;-75
2021/10/25 01:13:34;;;;;;;8.13;3.45;;;;;;;6.01;54.66;102103.58;1800936;77;21517;-72
2021/10/25 01:16:06;;;;;;;5.05;2.95;;;;;;;5.99;54.67;102101.63;1818908;78;21024;-72
2021/10/25 01:18:32;;;;;;;6.70;3.60;;;;;;;6.00;54.62;102109.08;1779147;78;21122;-73
2021/10/25 01:21:00;;;;;;;6.72;3.75;;;;;;;5.95;54.74;102113.61;1753680;80;21036;-73
2021/10/25 01:23:26;;;;;;;8.50;4.70;;;;;;;5.92;54.92;102109.15;1762505;78;21091;-73
2021/10/25 01:25:54;;;;;;;8.40;4.65;;;;;;;5.87;55.09;102119.01;1803532;78;21001;-73
2021/10/25 01:28:21;;;;;;;10.28;5.12;;;;;;;5.80;55.50;102120.77;1809034;77;21140;-74
2021/10/25 01:30:49;;;;;;;8.68;5.00;;;;;;;5.73;55.67;102123.85;1807359;78;20956;-73
2021/10/25 01:33:16;;;;;;;7.12;3.95;;;;;;;5.66;55.79;102125.10;1830769;77;21031;-73
2021/10/25 01:35:43;;;;;;;9.08;4.72;;;;;;;5.62;55.85;102123.80;1813930;77;21087;-73
2021/10/25 01:38:10;;;;;;;10.03;6.20;;;;;;;5.54;56.12;102135.84;1809365;78;21007;-74
2021/10/25 01:40:37;;;;;;;10.10;5.22;;;;;;;5.49;56.23;102136.38;1779131;80;21074;-73
2021/10/25 01:43:04;;;;;;;8.20;4.37;;;;;;;5.48;56.36;102142.70;1801796;78;21042;-73
2021/10/25 01:45:32;;;;;;;10.38;4.60;;;;;;;5.44;56.54;102140.61;1765649;80;21572;-71
2021/10/25 01:47:59;;;;;;;9.05;5.37;;;;;;;5.40;56.58;102142.30;1818162;78;21120;-73
2021/10/25 01:50:27;;;;;;;9.43;5.03;;;;;;;5.39;56.56;102144.61;1791467;78;21026;-72
2021/10/25 01:52:55;;;;;;;10.03;5.67;;;;;;;5.36;56.61;102147.66;1783626;80;21480;-72
2021/10/25 01:55:22;;;;;;;8.28;4.87;;;;;;;5.33;56.64;102151.14;1810827;77;21030;-71
2021/10/25 01:57:49;;;;;;;8.45;4.90;;;;;;;5.30;56.67;102161.63;1803492;78;21117;-71
2021/10/25 02:00:16;;;;;;;9.40;5.42;;;;;;;5.28;56.75;102158.84;1784145;80;21142;-73
2021/10/25 02:02:44;;;;;;;7.50;4.45;;;;;;;5.26;56.81;102163.48;1786745;78;21050;-71
2021/10/25 02:05:25;;;;;;;7.60;4.35;;;;;;;5.25;56.82;102163.98;1739825;78;21047;-72
2021/10/25 02:07:53;;;;;;;8.38;4.62;;;;;;;5.22;56.85;102165.67;1784902;80;20976;-71
2021/10/25 02:10:21;;;;;;;10.13;6.62;;;;;;;5.16;57.00;102170.38;1777519;80;21653;-72
2021/10/25 02:12:48;;;;;;;11.57;6.35;;;;;;;5.09;57.13;102170.27;1764126;80;22565;-72
2021/10/25 02:15:15;;;;;;;10.60;6.35;;;;;;;5.05;57.19;102172.97;1777660;80;21596;-72
2021/10/25 02:17:44;;;;;;;13.95;7.60;;;;;;;5.04;57.29;102171.34;1765495;80;21047;-72
2021/10/25 02:20:11;;;;;;;11.68;7.30;;;;;;;5.01;57.37;102169.55;1775683;79;21039;-72
2021/10/25 02:22:39;;;;;;;10.18;6.45;;;;;;;4.96;57.44;102174.55;1822493;77;20970;-73
2021/10/25 02:25:07;;;;;;;11.30;6.37;;;;;;;4.93;57.50;102181.02;1793511;78;21737;-71
2021/10/25 02:27:35;;;;;;;9.75;6.05;;;;;;;4.87;57.59;102180.41;1808388;77;21022;-72
2021/10/25 02:30:04;;;;;;;9.78;6.42;;;;;;;4.83;57.65;102176.48;1784318;79;21087;-72
2021/10/25 02:32:34;;;;;;;12.58;6.97;;;;;;;4.81;57.71;102181.16;1792438;79;20987;-72
2021/10/25 02:35:01;;;;;;;11.18;6.95;;;;;;;4.77;57.80;102183.34;1775514;80;21102;-72
2021/10/25 02:37:29;;;;;;;10.95;6.35;;;;;;;4.74;57.84;102183.69;1799484;78;21882;-72
2021/10/25 02:39:57;;;;;;;10.40;6.55;;;;;;;4.72;58.05;102182.22;1788478;79;21097;-72
2021/10/25 02:42:24;;;;;;;11.93;7.10;;;;;;;4.68;58.27;102190.51;1797716;78;21639;-72
2021/10/25 02:44:52;;;;;;;11.15;6.92;;;;;;;4.67;58.37;102185.38;1787835;79;21470;-72
2021/10/25 02:47:19;;;;;;;8.83;6.05;;;;;;;4.66;58.59;102189.03;1784961;78;21085;-72
2021/10/25 02:49:46;;;;;;;10.13;6.72;;;;;;;4.64;58.68;102187.05;1795209;78;21560;-72
2021/10/25 02:52:13;;;;;;;10.45;6.80;;;;;;;4.59;58.83;102194.72;1799268;79;21019;-71
2021/10/25 02:54:40;;;;;;;11.60;6.37;;;;;;;4.58;58.88;102193.08;1797936;78;21101;-72
2021/10/25 02:57:07;;;;;;;11.60;6.78;;;;;;;4.56;58.98;102197.20;1798546;78;21537;-73
2021/10/25 02:59:36;;;;;;;12.95;8.25;;;;;;;4.52;59.06;102201.72;1796422;78;20940;-72
2021/10/25 03:02:04;;;;;;;13.70;8.55;;;;;;;4.49;59.18;102205.53;1795972;78;21146;-72
2021/10/25 03:04:31;;;;;;;13.28;7.72;;;;;;;4.48;59.30;102208.38;1797095;78;21006;-72
2021/10/25 03:06:58;;;;;;;11.15;7.10;;;;;;;4.44;59.36;102203.43;1795048;78;20980;-73
2021/10/25 03:09:25;;;;;;;11.45;6.95;;;;;;;4.43;59.48;102206.23;1799419;79;20988;-73
2021/10/25 03:11:52;;;;;;;13.08;7.70;;;;;;;4.39;59.60;102209.73;1794824;78;21018;-73
2021/10/25 03:14:19;;;;;;;11.60;7.25;;;;;;;4.37;59.73;102215.69;1785414;78;21533;-73
2021/10/25 03:16:48;;;;;;;11.57;6.95;;;;;;;4.34;59.81;102221.32;1783529;78;20936;-71
2021/10/25 03:19:14;;;;;;;12.05;6.62;;;;;;;4.33;59.91;102218.87;1773965;79;21042;-72
2021/10/25 03:21:41;;;;;;;12.45;7.55;;;;;;;4.33;59.94;102224.16;1776141;79;21116;-71
2021/10/25 03:24:08;;;;;;;12.05;7.05;;;;;;;4.33;60.00;102228.12;1799134;78;21350;-72
2021/10/25 03:26:36;;;;;;;10.55;6.67;;;;;;;4.32;60.04;102224.66;1791744;78;21122;-72
2021/10/25 03:29:03;;;;;;;9.75;6.17;;;;;;;4.32;60.03;102225.16;1777845;78;21560;-72
2021/10/25 03:31:29;;;;;;;11.28;6.67;;;;;;;4.31;60.08;102232.75;1799296;78;21514;-73
2021/10/25 03:33:57;;;;;;;11.30;6.60;;;;;;;4.25;60.17;102227.69;1794391;78;21521;-72
2021/10/25 03:36:30;;;;;;;10.48;6.45;;;;;;;4.22;60.25;102226.20;1785806;78;21019;-73
2021/10/25 03:38:57;;;;;;;10.60;7.17;;;;;;;4.16;60.35;102224.75;1795564;78;21161;-72
2021/10/25 03:41:32;;;;;;;9.30;6.40;;;;;;;4.13;60.46;102234.35;1798170;78;21552;-72
2021/10/25 03:44:05;;;;;;;12.88;7.45;;;;;;;4.09;60.48;102233.87;1794924;78;20959;-71
2021/10/25 03:49:01;;;;;;;11.53;6.92;;;;;;;4.06;60.60;102221.00;1792644;78;20936;-72
2021/10/25 03:51:23;;;;;;;9.70;6.50;;;;;;;4.03;60.70;102218.70;1789180;78;21159;-72
2021/10/25 03:54:33;;;;;;;12.13;7.08;;;;;;;4.02;60.77;102224.98;1794063;78;20825;-72
2021/10/25 04:30:31;;;;;;;17.23;8.48;;;;;;;3.70;61.06;102257.64;1797447;78;21113;-72
2021/10/25 04:32:59;;;;;;;15.70;8.60;;;;;;;3.67;60.98;102261.95;1795435;78;21027;-73
2021/10/25 04:35:38;;;;;;;16.95;9.30;;;;;;;3.59;60.94;102262.80;1796214;78;20960;-72
2021/10/25 04:38:19;;;;;;;16.93;9.08;;;;;;;3.55;60.88;102269.89;1793276;78;21000;-72
2021/10/25 04:40:45;;;;;;;18.07;8.70;;;;;;;3.44;60.85;102270.58;1784345;78;21008;-72
2021/10/25 04:43:14;;;;;;;20.68;10.58;;;;;;;3.29;60.86;102273.55;1781779;79;21227;-72
2021/10/25 04:45:42;;;;;;;18.57;9.78;;;;;;;3.18;60.95;102279.19;1780136;78;21428;-72
2021/10/25 04:48:09;;;;;;;22.67;10.45;;;;;;;3.09;61.02;102279.67;1798374;79;21041;-72
2021/10/25 04:50:43;;;;;;;22.07;11.28;;;;;;;3.03;61.11;102277.72;1770994;79;20986;-72
2021/10/25 04:53:12;;;;;;;19.80;9.98;;;;;;;3.01;61.16;102283.64;1782435;79;21015;-73
2021/10/25 04:55:38;;;;;;;20.32;10.53;;;;;;;2.98;61.30;102282.15;1789675;80;22364;-73
2021/10/25 04:58:05;;;;;;;19.73;10.03;;;;;;;2.96;61.33;102285.47;1805524;77;21066;-74
2021/10/25 05:00:32;;;;;;;20.60;10.23;;;;;;;2.98;61.39;102288.75;1793972;78;21170;-74
2021/10/25 05:03:00;;;;;;;20.00;11.05;;;;;;;3.00;61.44;102285.96;1815071;77;21038;-73
2021/10/25 05:05:28;;;;;;;22.42;11.12;;;;;;;3.03;61.45;102297.02;1799017;78;20986;-71
2021/10/25 05:07:55;;;;;;;18.32;10.32;;;;;;;3.03;61.50;102298.34;1808468;78;21455;-72
2021/10/25 05:10:22;;;;;;;18.67;10.82;;;;;;;3.04;61.51;102299.98;1765651;80;21038;-73
2021/10/25 05:12:49;;;;;;;16.67;9.90;;;;;;;3.01;61.60;102297.66;1788333;79;21035;-73
2021/10/25 05:15:18;;;;;;;19.23;10.70;;;;;;;3.05;61.75;102300.80;1797534;78;21090;-73
2021/10/25 05:17:45;;;;;;;19.37;10.28;;;;;;;3.09;61.86;102302.61;1803313;78;20999;-73
2021/10/25 05:20:13;;;;;;;19.95;10.13;;;;;;;3.16;61.91;102306.23;1809206;78;21729;-73
2021/10/25 05:22:42;;;;;;;18.35;9.98;;;;;;;3.20;61.94;102297.02;1774886;79;21043;-73
2021/10/25 05:25:09;;;;;;;19.77;9.95;;;;;;;3.24;62.02;102306.25;1807886;77;21083;-73
2021/10/25 05:27:36;;;;;;;15.65;9.73;;;;;;;3.28;62.14;102312.84;1812138;77;21012;-73
2021/10/25 05:30:05;;;;;;;17.27;9.35;;;;;;;3.37;62.20;102312.36;1784944;78;21426;-73
2021/10/25 05:32:33;;;;;;;19.73;10.68;;;;;;;3.48;62.17;102318.11;1785867;79;21522;-72
2021/10/25 05:35:01;;;;;;;17.25;9.75;;;;;;;3.57;62.21;102314.98;1788314;79;21056;-73
2021/10/25 05:37:29;;;;;;;20.17;11.22;;;;;;;3.67;62.26;102318.26;1781193;79;21049;-74
2021/10/25 05:39:57;;;;;;;22.75;11.30;;;;;;;3.75;62.28;102320.05;1806487;78;21438;-73
2021/10/25 05:42:26;;;;;;;18.82;11.70;;;;;;;3.85;62.32;102323.83;1785826;79;21098;-71
2021/10/25 05:44:53;;;;;;;18.52;11.12;;;;;;;3.94;62.31;102330.75;1759768;80;21125;-73
2021/10/25 05:47:20;;;;;;;21.60;11.93;;;;;;;4.03;62.30;102335.53;1792386;78;21088;-72
2021/10/25 05:49:47;;;;;;;19.23;11.93;;;;;;;4.07;62.25;102336.84;1789243;79;20971;-72
2021/10/25 05:52:14;;;;;;;21.50;13.05;;;;;;;4.13;62.18;102340.12;1797208;78;21026;-73
2021/10/25 05:54:41;;;;;;;20.62;12.73;;;;;;;4.13;62.17;102341.45;1793886;78;21065;-74
2021/10/25 05:57:12;;;;;;;24.18;13.28;;;;;;;4.16;62.18;102343.76;1795609;79;21127;-73
2021/10/25 05:59:38;;;;;;;27.40;15.68;;;;;;;4.19;62.18;102347.39;1782620;78;21600;-72
2021/10/25 06:02:14;;;;;;;24.98;14.60;;;;;;;4.24;62.21;102350.33;1777446;79;20978;-74
2021/10/25 06:04:37;;;;;;;23.20;12.90;;;;;;;4.33;62.21;102353.78;1785598;78;21874;-74
2021/10/25 06:07:22;;;;;;;16.23;10.75;;;;;;;4.42;62.15;102354.08;1798329;79;21011;-74
2021/10/25 06:09:49;;;;;;;16.85;9.88;;;;;;;4.55;62.09;102360.14;1789910;78;21098;-74
2021/10/25 06:12:18;;;;;;;15.23;9.45;;;;;;;4.65;62.00;102358.11;1792007;78;20991;-73
2021/10/25 06:14:51;;;;;;;13.35;8.65;;;;;;;4.74;61.95;102356.22;1742934;79;20944;-74
2021/10/25 06:17:24;;;;;;;15.93;9.28;;;;;;;4.86;61.89;102360.13;1798465;78;21062;-73
2021/10/25 06:19:49;;;;;;;14.68;8.93;;;;;;;4.98;61.84;102356.59;1791789;78;21530;-75
2021/10/25 06:22:18;;;;;;;12.25;8.30;;;;;;;5.08;61.75;102363.81;1794952;78;21150;-74
2021/10/25 06:24:44;;;;;;;17.05;10.20;;;;;;;5.23;61.46;102362.05;1766296;79;21042;-74
2021/10/25 06:27:13;;;;;;;14.23;8.35;;;;;;;5.34;61.26;102367.43;1793524;78;21059;-73
2021/10/25 06:29:40;;;;;;;15.40;8.78;;;;;;;5.48;61.06;102363.17;1782044;79;21114;-74
2021/10/25 06:32:07;;;;;;;14.18;9.05;;;;;;;5.55;60.76;102364.10;1789220;78;21011;-74
2021/10/25 06:34:39;;;;;;;13.78;9.13;;;;;;;5.60;60.74;102359.92;1779045;79;22166;-74
2021/10/25 06:37:13;;;;;;;17.55;9.85;;;;;;;5.74;60.64;102365.43;1786635;78;21079;-73
2021/10/25 06:39:53;;;;;;;16.77;10.08;;;;;;;5.87;60.37;102370.94;1778836;79;21022;-74
2021/10/25 06:42:13;;;;;;;13.32;8.53;;;;;;;6.01;60.04;102367.50;1781516;78;21007;-74
2021/10/25 06:45:00;;;;;;;16.15;8.85;;;;;;;6.15;59.45;102369.83;1794998;79;21032;-73
2021/10/25 06:47:24;;;;;;;16.00;9.25;;;;;;;6.19;59.16;102366.33;1769433;80;21211;-74
2021/10/25 06:49:52;;;;;;;15.68;9.78;;;;;;;6.26;59.06;102374.69;1758701;80;21059;-73
2021/10/25 06:52:19;;;;;;;12.13;8.08;;;;;;;6.38;58.92;102373.70;1775107;79;21477;-73
2021/10/25 06:54:46;;;;;;;14.55;9.18;;;;;;;6.50;58.50;102372.75;1782683;79;20975;-73
2021/10/25 06:57:14;;;;;;;18.57;10.13;;;;;;;6.52;58.39;102372.07;1793325;79;21020;-76
2021/10/25 06:59:42;;;;;;;15.55;10.72;;;;;;;6.63;58.25;102372.09;1771708;79;21030;-73
2021/10/25 07:15:07;;;;;;;12.87;8.97;;;;;;;7.72;56.08;102365.58;1763686;80;24287;-69
2021/10/25 08:04:44;;;;;;;8.78;4.95;;;;;;;8.92;48.96;102375.55;1733296;81;21042;-69
2021/10/25 08:12:05;;;;;;;9.38;5.72;;;;;;;9.20;47.07;102366.05;1734919;82;21037;-68
2021/10/25 08:14:36;;;;;;;8.88;4.72;;;;;;;9.21;47.08;102372.20;1725644;81;21774;-68
2021/10/25 08:16:58;;;;;;;6.30;3.70;;;;;;;9.28;46.94;102375.69;1738412;81;21116;-69
2021/10/25 08:19:26;;;;;;;5.53;2.60;;;;;;;9.36;46.35;102375.50;1746964;80;21053;-68
2021/10/25 08:21:58;;;;;;;6.62;2.98;;;;;;;9.46;45.16;102373.25;1745027;80;21574;-68
2021/10/25 08:24:27;;;;;;;6.25;3.20;;;;;;;9.57;44.55;102369.95;1751899;81;21441;-69
2021/10/25 08:27:13;;;;;;;5.87;2.90;;;;;;;9.67;44.29;102363.39;1754301;80;22176;-69
2021/10/25 08:29:40;;;;;;;5.97;2.70;;;;;;;9.69;43.67;102361.35;1725616;83;21087;-69
2021/10/25 08:39:53;;;;;;;6.17;3.65;;;;;;;9.99;43.47;102351.03;1743561;80;21668;-69
2021/10/25 08:42:26;;;;;;;6.05;3.22;;;;;;;10.10;43.04;102351.22;1748445;80;21599;-67
2021/10/25 08:45:06;;;;;;;6.97;3.12;;;;;;;10.12;41.58;102353.67;1756441;81;21066;-70
2021/10/25 08:47:34;;;;;;;7.33;3.87;;;;;;;10.12;41.88;102347.52;1751178;80;21012;-67
2021/10/25 08:49:58;;;;;;;5.67;3.22;;;;;;;10.16;41.51;102346.06;1754718;81;20995;-68
2021/10/25 08:52:25;;;;;;;6.33;3.52;;;;;;;10.17;41.47;102349.02;1755904;80;21128;-70
2021/10/25 08:54:53;;;;;;;8.35;4.47;;;;;;;10.20;41.16;102344.11;1757621;80;21493;-69
2021/10/25 08:57:20;;;;;;;8.35;4.20;;;;;;;10.22;40.94;102344.70;1761515;80;21050;-69
2021/10/25 08:59:55;;;;;;;9.75;4.90;;;;;;;10.18;40.63;102349.34;1753357;80;21576;-70
2021/10/25 09:02:23;;;;;;;8.03;4.28;;;;;;;10.15;40.95;102348.44;1731510;80;21054;-69
2021/10/25 09:05:07;;;;;;;;;;;;;;;10.21;41.34;102341.73;1725939;83;21801;-70
2021/10/25 09:07:51;;;;;;;7.95;4.17;;;;;;;10.35;41.39;102339.05;1754979;80;20185;-68
2021/10/25 09:10:30;;;;;;;8.68;5.22;;;;;;;10.51;41.45;102339.38;1712010;81;21133;-69
2021/10/25 09:13:16;;;;;;;8.73;5.03;;;;;;;10.63;40.93;102330.19;1752099;81;21059;-68
2021/10/25 09:15:58;;;;;;;10.98;6.45;;;;;;;10.64;40.31;102327.81;1733519;80;20979;-68
2021/10/25 09:18:37;;;;;;;11.68;5.78;;;;;;;10.66;40.58;102333.77;1687558;84;21750;-68
2021/10/25 09:21:06;;;;;;;10.20;5.75;;;;;;;10.71;40.30;102335.27;1755994;81;22132;-69
2021/10/25 09:23:40;;;;;;;12.55;7.08;;;;;;;10.79;40.37;102327.51;1755302;80;21648;-69
2021/10/25 09:26:13;;;;;;;11.40;7.10;;;;;;;10.79;39.75;102332.86;1755579;81;21107;-69
2021/10/25 09:28:52;;;;;;;11.30;6.20;;;;;;;10.75;39.60;102326.30;1751125;80;21030;-68
2021/10/25 09:31:31;;;;;;;8.45;5.53;;;;;;;10.73;39.91;102320.38;1750784;81;21073;-69
2021/10/25 09:33:58;;;;;;;11.30;6.25;;;;;;;10.77;39.77;102326.92;1754201;80;21497;-69
2021/10/25 09:36:33;;;;;;;10.10;6.08;;;;;;;10.87;39.50;102323.78;1752169;80;21605;-69
2021/10/25 09:39:05;;;;;;;13.45;6.12;;;;;;;10.97;39.15;102316.10;1717941;80;21046;-69
2021/10/25 09:49:44;;;;;;;13.88;6.83;;;;;;;11.03;38.81;102315.24;1717402;82;21485;-69
2021/10/25 09:52:12;;;;;;;12.30;5.67;;;;;;;11.14;38.66;102320.40;1727297;81;20994;-68
2021/10/25 09:54:42;;;;;;;10.40;5.80;;;;;;;11.25;38.87;102318.34;1749451;80;20984;-68
2021/10/25 09:57:12;;;;;;;14.85;6.90;;;;;;;11.36;38.32;102316.31;1745884;81;21101;-68
2021/10/25 09:59:56;;;;;;;11.90;6.58;;;;;;;11.39;37.63;102314.55;1717869;81;21127;-69
2021/10/25 10:02:43;;;;;;;10.88;6.40;;;;;;;11.38;37.70;102318.76;1722586;81;21041;-70
2021/10/25 10:05:13;;;;;;;10.18;6.45;;;;;;;11.37;37.53;102310.44;1719713;81;21584;-70
2021/10/25 10:07:41;;;;;;;9.25;5.17;;;;;;;11.36;37.68;102308.29;1725261;81;21078;-70
2021/10/25 10:10:12;;;;;;;6.87;4.05;;;;;;;11.46;37.40;102311.28;1722890;82;21139;-69
2021/10/25 10:12:42;;;;;;;9.30;4.60;;;;;;;11.48;36.04;102293.16;1723493;82;21053;-69
2021/10/25 10:15:13;;;;;;;7.33;4.65;;;;;;;11.42;35.86;102295.91;1705343;82;21003;-69
2021/10/25 10:17:49;;;;;;;10.48;4.40;;;;;;;11.39;35.88;102294.48;1726616;82;21130;-69
2021/10/25 10:20:32;;;;;;;9.25;4.95;;;;;;;11.38;36.11;102290.14;1723624;81;21071;-69
2021/10/25 10:23:04;;;;;;;8.65;4.58;;;;;;;11.41;36.06;102288.37;1723263;82;21512;-69
2021/10/25 10:25:41;;;;;;;9.70;5.17;;;;;;;11.45;35.92;102284.23;1721448;82;21074;-70
2021/10/25 10:28:13;;;;;;;10.30;4.70;;;;;;;11.44;36.25;102278.56;1729039;82;21058;-69
2021/10/25 10:31:02;;;;;;;;;;;;;;;11.50;36.23;102281.70;1733175;82;21064;-69
2021/10/25 10:33:47;;;;;;;8.18;4.30;;;;;;;11.60;36.21;102287.08;1722282;82;20154;-68
2021/10/25 10:36:21;;;;;;;11.35;4.87;;;;;;;11.65;35.90;102281.36;1725603;81;21153;-68
2021/10/25 10:39:12;;;;;;;6.80;4.53;;;;;;;11.70;35.76;102282.02;1719510;82;21635;-68
2021/10/25 10:42:02;;;;;;;8.58;4.50;;;;;;;11.76;35.51;102280.33;1701107;82;21615;-69
2021/10/25 10:44:58;;;;;;;10.38;4.55;;;;;;;11.73;35.63;102276.23;1720741;82;21137;-70
2021/10/25 10:47:20;;;;;;;11.05;4.50;;;;;;;11.74;35.76;102277.86;1718189;82;21101;-68
2021/10/25 10:49:51;;;;;;;7.78;4.65;;;;;;;11.83;35.80;102272.51;1729310;82;21166;-70
2021/10/25 10:52:37;;;;;;;7.30;4.20;;;;;;;11.91;35.65;102270.08;1730095;82;21095;-68
2021/10/25 10:55:29;;;;;;;11.63;4.83;;;;;;;11.91;35.23;102274.94;1729977;81;21090;-68
2021/10/25 10:58:45;;;;;;;8.50;4.33;;;;;;;11.89;35.81;102269.50;1720935;82;21439;-68
2021/10/25 11:00:35;;;;;;;8.90;5.17;;;;;;;11.94;35.25;102274.49;1706959;83;21050;-68
2021/10/25 11:03:13;;;;;;;7.50;4.53;;;;;;;11.90;35.45;102273.28;1729248;83;21186;-69
2021/10/25 11:06:04;;;;;;;9.75;4.37;;;;;;;11.92;35.66;102275.75;1727495;82;21617;-69
2021/10/25 11:08:35;;;;;;;9.73;4.65;;;;;;;11.93;35.08;102274.70;1618121;87;26945;-69
2021/10/25 11:11:08;;;;;;;9.85;4.92;;;;;;;11.84;35.10;102271.49;1720237;82;21044;-69
2021/10/25 11:13:43;;;;;;;11.85;5.25;;;;;;;11.76;35.14;102274.45;1727031;82;21031;-70
2021/10/25 11:16:16;;;;;;;13.62;5.30;;;;;;;11.73;35.29;102260.98;1721801;82;21219;-70
2021/10/25 11:18:45;;;;;;;9.50;5.25;;;;;;;11.82;35.19;102260.17;1751434;80;21074;-70
2021/10/25 11:21:32;;;;;;;12.55;5.33;;;;;;;11.88;35.17;102258.50;1754046;80;26991;-69
2021/10/25 11:24:05;;;;;;;13.45;5.50;;;;;;;11.92;35.21;102260.50;1707776;82;21051;-69
2021/10/25 11:26:44;;;;;;;9.53;5.03;;;;;;;12.01;34.99;102261.52;1697299;81;21085;-70
2021/10/25 11:29:31;;;;;;;11.95;5.17;;;;;;;12.06;34.82;102259.81;1730190;81;21223;-68
2021/10/25 11:32:00;;;;;;;10.82;5.67;;;;;;;12.09;34.85;102259.89;1738597;80;21089;-68
2021/10/25 11:34:38;;;;;;;10.63;5.12;;;;;;;12.11;34.72;102252.43;1708647;81;21114;-69
2021/10/25 11:37:19;;;;;;;8.80;4.90;;;;;;;12.17;34.70;102247.51;1739338;81;21135;-67
2021/10/25 11:40:02;;;;;;;9.60;5.08;;;;;;;12.19;34.43;102246.25;1719249;82;21082;-68
2021/10/25 11:42:28;;;;;;;9.95;5.10;;;;;;;12.19;34.43;102246.25;1754057;80;21174;-69
2021/10/25 11:44:59;;;;;;;15.68;5.87;;;;;;;12.22;34.47;102246.85;1735615;81;21574;-69
2021/10/25 11:47:32;;;;;;;14.40;5.87;;;;;;;12.25;34.60;102249.08;1742626;80;21011;-69
2021/10/25 11:50:15;;;;;;;15.63;5.80;;;;;;;12.30;34.73;102241.97;1731891;80;21938;-70
2021/10/25 11:52:50;;;;;;;15.08;6.37;;;;;;;12.42;34.82;102239.36;1749133;80;21063;-69
2021/10/25 11:55:25;;;;;;;13.43;6.10;;;;;;;12.41;34.11;102242.56;1744143;80;21322;-69
2021/10/25 11:58:13;;;;;;;15.03;6.85;;;;;;;12.33;34.24;102235.35;1753145;80;21572;-69
2021/10/25 12:00:49;;;;;;;10.70;5.50;;;;;;;12.34;34.54;102231.13;1752329;80;21137;-69
2021/10/25 12:03:21;;;;;;;10.63;4.70;;;;;;;12.42;34.71;102226.77;1754175;81;21011;-69
2021/10/25 12:05:48;;;;;;;10.55;6.00;;;;;;;12.53;34.72;102221.67;1748185;80;21046;-69
2021/10/25 12:08:19;;;;;;;16.37;6.80;;;;;;;12.51;33.93;102217.08;1750319;80;22021;-70
2021/10/25 12:10:48;;;;;;;14.70;6.65;;;;;;;12.40;34.34;102218.66;1718254;82;21047;-69
2021/10/25 12:13:15;;;;;;;12.90;6.03;;;;;;;12.38;34.25;102217.55;1753362;80;21059;-69
2021/10/25 12:15:54;;;;;;;10.72;5.50;;;;;;;12.37;34.25;102217.27;1750824;80;21042;-69
2021/10/25 12:18:20;;;;;;;12.73;5.90;;;;;;;12.39;34.38;102215.16;1754776;80;21165;-69
2021/10/25 12:20:49;;;;;;;10.85;5.17;;;;;;;12.44;34.11;102220.67;1754148;80;21557;-68
2021/10/25 12:23:20;;;;;;;10.25;5.12;;;;;;;12.50;34.43;102210.06;1748539;80;21023;-69
2021/10/25 12:26:03;;;;;;;10.98;5.65;;;;;;;12.59;34.57;102206.83;1727312;80;21074;-68
2021/10/25 12:28:30;;;;;;;11.70;6.20;;;;;;;12.67;34.41;102204.35;1725397;81;21688;-69
2021/10/25 12:31:15;;;;;;;9.10;5.03;;;;;;;12.73;34.02;102203.94;1732242;81;21054;-69
2021/10/25 12:33:44;;;;;;;11.50;5.70;;;;;;;12.76;34.03;102200.80;1728542;81;21161;-70
2021/10/25 12:36:18;;;;;;;12.20;5.28;;;;;;;12.77;33.56;102193.88;1733518;81;21046;-69
2021/10/25 12:38:49;;;;;;;9.55;5.10;;;;;;;12.73;33.85;102198.05;1727665;82;21626;-69
2021/10/25 12:41:16;;;;;;;11.40;5.15;;;;;;;12.72;33.92;102197.76;1733345;82;21626;-69
2021/10/25 12:43:53;;;;;;;10.75;5.30;;;;;;;12.72;33.96;102201.78;1732363;81;21607;-70
2021/10/25 12:46:22;;;;;;;10.23;4.95;;;;;;;12.74;33.76;102201.04;1729843;81;21984;-70
2021/10/25 12:48:51;;;;;;;12.25;5.47;;;;;;;12.76;33.91;102192.75;1733000;81;21262;-69
2021/10/25 12:51:23;;;;;;;8.55;5.42;;;;;;;12.77;33.80;102187.17;1705291;82;21569;-71
2021/10/25 12:53:51;;;;;;;9.65;4.83;;;;;;;12.79;33.62;102186.92;1735266;81;21019;-70
2021/10/25 12:56:28;;;;;;;10.30;5.87;;;;;;;12.80;33.74;102191.23;1732417;81;21611;-70
2021/10/25 12:59:08;;;;;;;9.73;5.28;;;;;;;12.75;33.42;102189.25;1734181;82;21147;-69
2021/10/25 13:01:36;;;;;;;9.38;5.00;;;;;;;12.70;33.53;102190.48;1726712;81;21636;-69
2021/10/25 13:04:05;;;;;;;9.73;4.50;;;;;;;12.70;34.15;102191.83;1705986;82;21073;-70
2021/10/25 13:06:34;;;;;;;8.40;4.25;;;;;;;12.72;34.22;102195.61;1732310;82;21031;-69
2021/10/25 13:09:08;;;;;;;7.37;4.60;;;;;;;12.72;33.89;102185.70;1733595;81;21540;-70
2021/10/25 13:11:35;;;;;;;8.35;4.22;;;;;;;12.67;33.95;102178.89;1728485;82;22303;-70
2021/10/25 13:14:02;;;;;;;8.05;4.58;;;;;;;12.66;34.08;102179.91;1736481;81;21533;-70
2021/10/25 13:19:08;;;;;;;8.60;4.67;;;;;;;12.64;34.24;102187.39;1734865;81;20995;-70
2021/10/25 13:21:35;;;;;;;8.85;4.70;;;;;;;12.58;34.25;102180.27;1731024;81;21060;-70
2021/10/25 13:24:02;;;;;;;6.80;3.70;;;;;;;12.55;34.31;102178.04;1732754;81;21157;-70
2021/10/25 13:26:30;;;;;;;8.13;4.62;;;;;;;12.49;34.19;102185.13;1724961;81;21585;-72
2021/10/25 13:28:58;;;;;;;10.40;4.62;;;;;;;12.43;34.40;102178.00;1733372;82;21074;-70
2021/10/25 13:31:28;;;;;;;7.53;4.30;;;;;;;12.39;34.67;102178.98;1731611;81;21541;-70
2021/10/25 13:34:00;;;;;;;6.22;4.00;;;;;;;12.38;35.07;102173.34;1701666;82;20967;-69
2021/10/25 13:36:27;;;;;;;10.93;4.78;;;;;;;12.36;35.03;102175.95;1728841;81;21114;-73
2021/10/25 13:38:55;;;;;;;8.13;4.28;;;;;;;12.33;35.10;102178.56;1730883;82;20987;-73
2021/10/25 13:41:22;;;;;;;9.85;4.58;;;;;;;12.33;35.39;102175.06;1728786;81;21058;-70